createdAt,value
2022-08-20T00:01:16.132Z,17.96
2022-08-20T00:03:44.743Z,17.98
2022-08-20T00:06:24.315Z,17.87
2022-08-20T00:08:51.950Z,17.87
2022-08-20T00:11:24.012Z,17.91
2022-08-20T00:13:57.111Z,17.96
2022-08-20T00:16:28.018Z,17.92
2022-08-20T00:18:55.311Z,17.82
2022-08-20T00:21:23.379Z,17.78
2022-08-20T00:23:55.047Z,17.81
2022-08-20T00:26:23.350Z,17.82
2022-08-20T00:28:50.897Z,17.73
2022-08-20T00:31:21.738Z,17.67
2022-08-20T00:33:49.911Z,17.59
2022-08-20T00:36:17.703Z,17.69
2022-08-20T00:38:47.170Z,17.61
2022-08-20T00:41:23.266Z,17.49
2022-08-20T00:44:12.267Z,17.44
2022-08-20T00:46:41.133Z,17.36
2022-08-20T00:49:22.889Z,17.35
2022-08-20T00:51:55.678Z,17.35
2022-08-20T00:54:40.159Z,17.27
2022-08-20T00:57:54.817Z,17.25
2022-08-20T01:00:34.081Z,17.22
2022-08-20T01:03:01.766Z,17.18
2022-08-20T01:05:30.127Z,17.18
2022-08-20T01:07:58.221Z,17.28
2022-08-20T01:10:35.067Z,17.29
2022-08-20T01:13:11.042Z,17.23
2022-08-20T01:15:44.028Z,17.23
2022-08-20T01:18:18.401Z,17.13
2022-08-20T01:20:52.109Z,17.03
2022-08-20T01:23:39.760Z,17.02
2022-08-20T01:26:19.668Z,17.06
2022-08-20T01:28:59.262Z,17.04
2022-08-20T01:31:33.933Z,16.97
2022-08-20T01:34:04.363Z,17.01
2022-08-20T01:36:46.471Z,17.01
2022-08-20T01:39:17.824Z,16.90
2022-08-20T01:42:15.447Z,16.95
2022-08-20T01:44:44.776Z,16.93
2022-08-20T01:47:35.366Z,16.82
2022-08-20T01:50:18.597Z,16.81
2022-08-20T01:53:21.578Z,16.83
2022-08-20T01:55:48.353Z,16.77
2022-08-20T01:58:15.360Z,16.67
2022-08-20T02:00:42.395Z,16.64
2022-08-20T02:03:09.568Z,16.65
2022-08-20T02:05:36.667Z,16.61
2022-08-20T02:08:04.575Z,16.54
2022-08-20T02:10:31.930Z,16.47
2022-08-20T02:13:01.217Z,16.38
2022-08-20T02:15:35.017Z,16.33
2022-08-20T02:18:08.335Z,16.37
2022-08-20T02:20:37.246Z,16.35
2022-08-20T02:23:05.809Z,16.34
2022-08-20T02:25:36.317Z,16.43
2022-08-20T02:28:08.212Z,16.43
2022-08-20T02:30:40.748Z,16.32
2022-08-20T02:33:11.945Z,16.37
2022-08-20T02:35:42.881Z,16.40
2022-08-20T02:38:11.389Z,16.37
2022-08-20T02:40:38.577Z,16.40
2022-08-20T02:43:05.932Z,16.36
2022-08-20T02:45:40.347Z,16.40
2022-08-20T02:48:07.153Z,16.47
2022-08-20T02:50:34.050Z,16.30
2022-08-20T02:53:00.845Z,16.35
2022-08-20T02:55:28.492Z,16.44
2022-08-20T02:57:59.513Z,16.48
2022-08-20T03:00:37.892Z,16.45
2022-08-20T03:03:08.216Z,16.34
2022-08-20T03:05:36.398Z,16.35
2022-08-20T03:08:08.529Z,16.32
2022-08-20T03:10:38.332Z,16.41
2022-08-20T03:13:06.520Z,16.40
2022-08-20T03:15:34.673Z,16.40
2022-08-20T03:18:01.551Z,16.37
2022-08-20T03:20:29.443Z,16.41
2022-08-20T03:22:57.633Z,16.34
2022-08-20T03:25:25.264Z,16.34
2022-08-20T03:27:54.427Z,16.35
2022-08-20T03:30:23.891Z,16.33
2022-08-20T03:32:50.912Z,16.34
2022-08-20T03:35:21.526Z,16.17
2022-08-20T03:37:48.879Z,16.19
2022-08-20T03:40:35.463Z,16.18
2022-08-20T03:43:02.336Z,16.19
2022-08-20T03:45:30.042Z,15.99
2022-08-20T03:47:58.197Z,15.94
2022-08-20T03:50:29.110Z,16.04
2022-08-20T03:52:57.844Z,16.10
2022-08-20T03:55:26.269Z,16.13
2022-08-20T03:58:02.238Z,16.11
2022-08-20T04:00:37.523Z,16.02
2022-08-20T04:03:06.510Z,16.08
2022-08-20T04:05:34.461Z,16.10
2022-08-20T04:08:03.690Z,16.03
2022-08-20T04:10:31.567Z,15.97
2022-08-20T04:12:58.356Z,16.00
2022-08-20T04:15:26.565Z,16.02
2022-08-20T04:17:54.303Z,15.99
2022-08-20T04:20:24.023Z,15.99
2022-08-20T04:22:59.446Z,16.07
2022-08-20T04:25:29.789Z,16.08
2022-08-20T04:27:59.155Z,16.06
2022-08-20T04:30:28.071Z,15.90
2022-08-20T04:32:56.233Z,16.00
2022-08-20T04:35:27.337Z,16.02
2022-08-20T04:38:15.135Z,16.06
2022-08-20T04:40:54.351Z,16.02
2022-08-20T04:43:23.470Z,15.97
2022-08-20T04:45:52.146Z,15.91
2022-08-20T04:48:20.654Z,15.86
2022-08-20T04:50:47.682Z,15.87
2022-08-20T04:53:21.631Z,15.83
2022-08-20T04:55:54.495Z,15.79
2022-08-20T04:58:33.892Z,15.82
2022-08-20T05:01:09.892Z,15.79
2022-08-20T05:03:41.477Z,15.75
2022-08-20T05:06:11.503Z,15.65
2022-08-20T05:08:39.254Z,15.48
2022-08-20T05:11:33.945Z,15.67
2022-08-20T05:13:56.206Z,15.65
2022-08-20T05:16:24.677Z,15.65
2022-08-20T05:18:52.757Z,15.76
2022-08-20T05:21:21.189Z,15.81
2022-08-20T05:23:49.550Z,15.72
2022-08-20T05:26:20.206Z,15.78
2022-08-20T05:28:54.123Z,15.76
2022-08-20T05:31:31.694Z,15.74
2022-08-20T05:34:00.940Z,15.83
2022-08-20T05:36:27.779Z,15.92
2022-08-20T05:38:54.900Z,16.07
2022-08-20T05:41:29.456Z,16.02
2022-08-20T05:44:03.419Z,16.06
2022-08-20T05:46:32.213Z,16.10
2022-08-20T05:49:02.079Z,16.15
2022-08-20T05:51:30.152Z,16.24
2022-08-20T05:53:59.472Z,16.32
2022-08-20T05:56:30.864Z,16.38
2022-08-20T05:59:04.437Z,16.39
2022-08-20T06:01:36.055Z,16.45
2022-08-20T06:04:22.613Z,16.56
2022-08-20T06:06:51.214Z,16.68
2022-08-20T06:09:27.976Z,16.78
2022-08-20T06:11:59.673Z,16.77
2022-08-20T06:14:26.775Z,16.94
2022-08-20T06:16:57.569Z,16.99
2022-08-20T06:19:26.197Z,17.08
2022-08-20T06:21:53.170Z,17.12
2022-08-20T06:24:21.423Z,17.12
2022-08-20T06:26:48.277Z,17.22
2022-08-20T06:29:16.069Z,17.29
2022-08-20T06:31:42.896Z,17.40
2022-08-20T06:34:09.705Z,17.51
2022-08-20T06:36:36.538Z,17.60
2022-08-20T06:39:03.805Z,17.58
2022-08-20T06:41:36.297Z,17.68
2022-08-20T06:44:05.585Z,17.73
2022-08-20T06:46:33.225Z,17.74
2022-08-20T06:49:00.171Z,17.77
2022-08-20T06:51:27.131Z,17.66
2022-08-20T06:53:54.018Z,17.71
2022-08-20T06:56:20.873Z,17.72
2022-08-20T06:58:47.755Z,17.91
2022-08-20T07:01:15.035Z,18.06
2022-08-20T07:03:54.336Z,18.17
2022-08-20T07:06:25.626Z,18.28
2022-08-20T07:08:56.510Z,18.32
2022-08-20T07:11:28.023Z,18.35
2022-08-20T07:13:58.928Z,18.36
2022-08-20T07:16:27.325Z,18.27
2022-08-20T07:18:54.188Z,18.24
2022-08-20T07:21:20.970Z,18.15
2022-08-20T07:23:49.008Z,18.54
2022-08-20T07:26:16.251Z,18.57
2022-08-20T07:28:43.099Z,18.61
2022-08-20T07:31:28.535Z,18.63
2022-08-20T07:33:58.159Z,18.74
2022-08-20T07:36:27.131Z,18.76
2022-08-20T07:38:54.474Z,18.60
2022-08-20T07:41:21.606Z,18.76
2022-08-20T07:43:48.993Z,18.71
2022-08-20T07:46:20.875Z,18.81
2022-08-20T07:48:50.594Z,18.61
2022-08-20T07:51:22.426Z,18.78
2022-08-20T07:53:51.796Z,18.86
2022-08-20T07:56:24.353Z,18.90
2022-08-20T07:58:55.543Z,18.96
2022-08-20T08:01:30.476Z,18.86
2022-08-20T08:03:58.513Z,18.77
2022-08-20T08:06:30.039Z,18.96
2022-08-20T08:09:11.065Z,19.02
2022-08-20T08:11:44.967Z,18.91
2022-08-20T08:14:14.203Z,18.97
2022-08-20T08:16:45.331Z,19.25
2022-08-20T08:19:14.539Z,19.34
2022-08-20T08:21:41.791Z,19.46
2022-08-20T08:24:08.650Z,19.56
2022-08-20T08:26:35.405Z,19.71
2022-08-20T08:29:02.783Z,19.81
2022-08-20T08:31:29.666Z,19.88
2022-08-20T08:33:56.637Z,19.54
2022-08-20T08:36:26.397Z,19.85
2022-08-20T08:38:54.735Z,19.97
2022-08-20T08:41:50.049Z,20.13
2022-08-20T08:44:31.309Z,20.21
2022-08-20T08:47:19.088Z,20.33
2022-08-20T08:49:47.671Z,20.45
2022-08-20T08:52:31.637Z,20.53
2022-08-20T08:55:05.249Z,20.66
2022-08-20T08:57:32.420Z,20.84
2022-08-20T09:00:12.671Z,20.90
2022-08-20T09:02:39.711Z,21.04
2022-08-20T09:05:17.867Z,21.29
2022-08-20T09:07:51.889Z,21.48
2022-08-20T09:10:22.904Z,21.55
2022-08-20T09:12:50.750Z,21.60
2022-08-20T09:15:19.199Z,21.83
2022-08-20T09:17:46.000Z,21.62
2022-08-20T09:20:13.129Z,21.88
2022-08-20T09:22:41.381Z,21.86
2022-08-20T09:25:08.873Z,22.11
2022-08-20T09:27:35.687Z,22.24
2022-08-20T09:30:05.408Z,22.26
2022-08-20T09:32:32.969Z,21.30
2022-08-20T09:35:00.031Z,21.02
2022-08-20T09:37:35.054Z,21.52
2022-08-20T09:40:05.341Z,21.62
2022-08-20T09:42:40.252Z,21.55
2022-08-20T09:45:10.796Z,21.88
2022-08-20T09:47:41.691Z,22.17
2022-08-20T09:50:24.288Z,22.17
2022-08-20T09:52:53.748Z,22.46
2022-08-20T09:55:38.560Z,22.64
2022-08-20T09:58:41.589Z,22.71
2022-08-20T10:01:15.137Z,22.75
2022-08-20T10:03:43.402Z,22.67
2022-08-20T10:06:11.423Z,22.70
2022-08-20T10:08:38.726Z,22.50
2022-08-20T10:11:05.741Z,22.15
2022-08-20T10:13:32.546Z,22.15
2022-08-20T10:15:59.323Z,21.90
2022-08-20T10:18:26.155Z,21.04
2022-08-20T10:20:53.009Z,20.83
2022-08-20T10:23:19.868Z,20.56
2022-08-20T10:25:46.672Z,20.68
2022-08-20T10:28:13.490Z,20.58
2022-08-20T10:30:40.272Z,20.44
2022-08-20T10:33:07.138Z,20.44
2022-08-20T10:35:34.282Z,20.35
2022-08-20T10:38:01.158Z,20.27
2022-08-20T10:40:28.162Z,20.14
2022-08-20T10:42:54.981Z,20.01
2022-08-20T10:45:21.776Z,19.92
2022-08-20T10:47:48.825Z,19.82
2022-08-20T10:50:17.138Z,19.92
2022-08-20T10:52:44.116Z,19.77
2022-08-20T10:55:11.322Z,19.82
2022-08-20T10:57:40.727Z,19.82
2022-08-20T11:00:10.369Z,19.79
2022-08-20T11:02:37.620Z,19.82
2022-08-20T11:05:06.280Z,19.74
2022-08-20T11:07:50.635Z,19.83
2022-08-20T11:10:26.258Z,19.79
2022-08-20T11:12:53.138Z,19.77
2022-08-20T11:15:19.925Z,19.80
2022-08-20T11:17:47.266Z,19.85
2022-08-20T11:20:18.290Z,19.85
2022-08-20T11:22:45.214Z,19.85
2022-08-20T11:25:12.064Z,19.96
2022-08-20T11:27:44.385Z,20.11
2022-08-20T11:30:16.655Z,20.09
2022-08-20T11:32:43.473Z,20.21
2022-08-20T11:35:40.543Z,20.35
2022-08-20T11:37:59.851Z,20.41
2022-08-20T11:40:28.094Z,20.58
2022-08-20T11:43:14.168Z,20.71
2022-08-20T11:45:41.294Z,20.86
2022-08-20T11:48:08.060Z,21.09
2022-08-20T11:50:34.872Z,21.28
2022-08-20T11:53:01.858Z,21.57
2022-08-20T11:55:30.155Z,21.76
2022-08-20T11:58:00.323Z,22.07
2022-08-20T12:00:33.189Z,22.34
2022-08-20T12:03:07.891Z,22.60
2022-08-20T12:05:41.721Z,22.76
2022-08-20T12:08:09.317Z,22.77
2022-08-20T12:10:38.068Z,22.83
2022-08-20T12:13:07.112Z,22.89
2022-08-20T12:15:36.721Z,23.01
2022-08-20T12:18:08.482Z,22.76
2022-08-20T12:20:37.824Z,22.87
2022-08-20T12:23:04.866Z,22.76
2022-08-20T12:27:59.663Z,22.51
2022-08-20T12:30:26.704Z,22.41
2022-08-20T12:32:53.655Z,22.31
2022-08-20T12:35:20.694Z,22.13
2022-08-20T12:37:47.566Z,21.87
2022-08-20T12:40:32.508Z,21.84
2022-08-20T12:43:02.034Z,21.59
2022-08-20T12:45:30.164Z,21.54
2022-08-20T12:48:03.706Z,21.59
2022-08-20T12:50:31.960Z,21.54
2022-08-20T12:52:59.304Z,21.52
2022-08-20T12:55:26.462Z,21.62
2022-08-20T12:57:59.324Z,21.51
2022-08-20T13:00:36.527Z,21.58
2022-08-20T13:03:06.017Z,21.79
2022-08-20T13:05:34.441Z,21.91
2022-08-20T13:08:02.335Z,22.12
2022-08-20T13:10:35.693Z,22.28
2022-08-20T13:13:03.906Z,22.40
2022-08-20T13:15:32.724Z,22.44
2022-08-20T13:18:02.742Z,22.50
2022-08-20T13:20:34.411Z,22.59
2022-08-20T13:25:30.731Z,22.73
2022-08-20T13:28:00.912Z,22.98
2022-08-20T13:30:28.019Z,22.94
2022-08-20T13:32:54.983Z,23.15
2022-08-20T13:35:21.974Z,23.16
2022-08-20T13:37:49.974Z,23.19
2022-08-20T13:40:18.009Z,23.16
2022-08-20T13:42:45.009Z,23.24
2022-08-20T13:45:12.294Z,23.42
2022-08-20T13:47:41.667Z,23.55
2022-08-20T13:50:15.388Z,23.80
2022-08-20T13:52:43.635Z,23.87
2022-08-20T13:55:15.150Z,23.98
2022-08-20T13:57:43.462Z,23.89
2022-08-20T14:00:16.082Z,23.94
2022-08-20T14:02:43.572Z,23.89
2022-08-20T14:05:12.091Z,23.58
2022-08-20T14:07:44.008Z,23.16
2022-08-20T14:10:17.342Z,23.03
2022-08-20T14:12:44.504Z,22.81
2022-08-20T14:15:12.284Z,22.68
2022-08-20T14:17:43.109Z,22.57
2022-08-20T14:20:16.741Z,22.33
2022-08-20T14:22:44.701Z,22.25
2022-08-20T14:25:15.317Z,22.11
2022-08-20T14:27:42.673Z,22.10
2022-08-20T14:30:27.515Z,22.01
2022-08-20T14:32:54.931Z,22.02
2022-08-20T14:35:22.837Z,21.94
2022-08-20T14:37:53.325Z,21.75
2022-08-20T14:40:23.347Z,21.84
2022-08-20T14:42:51.857Z,21.72
2022-08-20T14:45:20.414Z,21.14
2022-08-20T14:47:55.428Z,21.41
2022-08-20T14:50:31.409Z,21.53
2022-08-20T14:52:59.085Z,21.75
2022-08-20T14:55:30.924Z,21.98
2022-08-20T14:57:58.024Z,22.08
2022-08-20T15:00:30.969Z,22.14
2022-08-20T15:02:58.342Z,22.47
2022-08-20T15:05:26.050Z,22.36
2022-08-20T15:07:56.535Z,22.49
2022-08-20T15:10:30.845Z,22.51
2022-08-20T15:12:58.734Z,22.55
2022-08-20T15:15:26.215Z,22.94
2022-08-20T15:17:57.796Z,23.37
2022-08-20T15:20:28.232Z,23.55
2022-08-20T15:22:55.707Z,23.91
2022-08-20T15:25:27.507Z,25.60
2022-08-20T15:28:04.698Z,26.51
2022-08-20T15:30:32.560Z,27.13
2022-08-20T15:32:59.692Z,27.71
2022-08-20T15:35:28.977Z,27.99
2022-08-20T15:37:58.467Z,27.88
2022-08-20T15:40:29.158Z,26.95
2022-08-20T15:43:00.932Z,25.74
2022-08-20T15:45:28.326Z,25.50
2022-08-20T15:48:02.441Z,25.22
2022-08-20T15:51:00.564Z,24.97
2022-08-20T15:53:39.886Z,24.73
2022-08-20T15:56:21.145Z,24.74
2022-08-20T15:59:06.361Z,24.55
2022-08-20T16:02:26.655Z,24.36
2022-08-20T16:05:09.901Z,24.18
2022-08-20T16:07:49.662Z,24.02
2022-08-20T16:10:34.353Z,23.96
2022-08-20T16:13:06.765Z,23.84
2022-08-20T16:15:39.772Z,23.82
2022-08-20T16:18:09.661Z,23.81
2022-08-20T16:20:42.851Z,23.76
2022-08-20T16:23:17.360Z,23.71
2022-08-20T16:26:20.746Z,23.50
2022-08-20T16:29:04.898Z,23.39
2022-08-20T16:31:48.962Z,23.34
2022-08-20T16:34:35.367Z,23.28
2022-08-20T16:37:25.467Z,23.14
2022-08-20T16:40:18.295Z,23.07
2022-08-20T16:42:48.613Z,23.15
2022-08-20T16:45:51.678Z,23.20
2022-08-20T16:48:19.623Z,23.06
2022-08-20T16:51:02.741Z,22.83
2022-08-20T16:53:29.537Z,22.84
2022-08-20T16:55:57.349Z,22.81
2022-08-20T16:58:24.398Z,22.80
2022-08-20T17:01:10.513Z,22.87
2022-08-20T17:03:40.096Z,22.82
2022-08-20T17:06:33.348Z,22.66
2022-08-20T17:09:15.012Z,22.47
2022-08-20T17:11:47.775Z,22.37
2022-08-20T17:14:18.934Z,22.23
2022-08-20T17:16:50.154Z,22.20
2022-08-20T17:19:30.499Z,22.16
2022-08-20T17:22:14.770Z,22.24
2022-08-20T17:24:41.786Z,22.24
2022-08-20T17:27:16.496Z,22.16
2022-08-20T17:29:54.866Z,22.17
2022-08-20T17:32:23.399Z,22.11
2022-08-20T17:34:55.711Z,22.14
2022-08-20T17:37:27.813Z,22.02
2022-08-20T17:40:40.178Z,21.90
2022-08-20T17:43:10.525Z,21.88
2022-08-20T17:45:43.685Z,21.78
2022-08-20T17:48:24.033Z,21.63
2022-08-20T17:50:52.500Z,21.56
2022-08-20T17:53:29.978Z,21.43
2022-08-20T17:56:03.097Z,21.31
2022-08-20T17:58:40.523Z,21.26
2022-08-20T18:01:22.258Z,21.03
2022-08-20T18:03:52.687Z,21.05
2022-08-20T18:06:34.695Z,20.89
2022-08-20T18:09:16.996Z,20.69
2022-08-20T18:11:44.821Z,20.65
2022-08-20T18:14:17.640Z,20.70
2022-08-20T18:17:17.402Z,20.60
2022-08-20T18:20:06.519Z,20.42
2022-08-20T18:22:44.638Z,20.32
2022-08-20T18:25:29.627Z,20.25
2022-08-20T18:28:05.626Z,20.22
2022-08-20T18:30:33.572Z,20.06
2022-08-20T18:33:10.866Z,19.98
2022-08-20T18:35:46.265Z,19.87
2022-08-20T18:38:22.407Z,19.88
2022-08-20T18:40:54.460Z,19.80
2022-08-20T18:43:30.640Z,19.80
2022-08-20T18:46:18.941Z,19.69
2022-08-20T18:48:56.480Z,19.56
2022-08-20T18:51:36.885Z,19.37
2022-08-20T18:54:04.654Z,19.43
2022-08-20T18:56:42.886Z,19.28
2022-08-20T18:59:20.037Z,19.31
2022-08-20T19:01:49.276Z,19.20
2022-08-20T19:04:32.022Z,19.12
2022-08-20T19:07:06.520Z,19.13
2022-08-20T19:10:27.897Z,18.98
2022-08-20T19:13:00.950Z,18.72
2022-08-20T19:15:28.356Z,18.62
2022-08-20T19:18:51.394Z,18.65
2022-08-20T19:21:27.466Z,18.64
2022-08-20T19:23:57.813Z,18.42
2022-08-20T19:26:32.114Z,18.56
2022-08-20T19:29:10.669Z,18.49
2022-08-20T19:31:38.046Z,18.28
2022-08-20T19:34:25.826Z,18.39
2022-08-20T19:37:10.025Z,18.34
2022-08-20T19:39:54.053Z,18.28
2022-08-20T19:42:30.120Z,18.27
2022-08-20T19:45:02.135Z,18.14
2022-08-20T19:47:41.502Z,18.14
2022-08-20T19:50:48.585Z,18.07
2022-08-20T19:53:31.298Z,17.98
2022-08-20T19:56:11.312Z,17.91
2022-08-20T19:58:38.509Z,17.80
2022-08-20T20:01:18.762Z,17.68
2022-08-20T20:04:14.635Z,17.49
2022-08-20T20:06:46.048Z,17.40
2022-08-20T20:09:27.328Z,17.40
2022-08-20T20:12:22.667Z,17.43
2022-08-20T20:14:52.880Z,17.54
2022-08-20T20:17:36.808Z,17.25
2022-08-20T20:20:33.495Z,17.16
2022-08-20T20:23:13.666Z,17.13
2022-08-20T20:25:47.289Z,17.00
2022-08-20T20:28:22.869Z,17.10
2022-08-20T20:30:50.031Z,17.16
2022-08-20T20:33:19.915Z,17.23
2022-08-20T20:35:47.091Z,17.22
2022-08-20T20:38:28.190Z,17.28
2022-08-20T20:41:00.196Z,17.27
2022-08-20T20:43:32.390Z,17.19
2022-08-20T20:46:04.618Z,17.23
2022-08-20T20:48:48.561Z,17.24
2022-08-20T20:51:33.639Z,17.31
2022-08-20T20:54:06.878Z,17.33
2022-08-20T20:56:41.735Z,17.32
2022-08-20T20:59:10.507Z,17.21
2022-08-20T21:01:50.043Z,17.28
2022-08-20T21:04:22.354Z,17.23
2022-08-20T21:06:52.226Z,17.22
2022-08-20T21:09:19.854Z,17.14
2022-08-20T21:11:47.329Z,17.17
2022-08-20T21:14:14.665Z,17.10
2022-08-20T21:16:42.183Z,17.02
2022-08-20T21:19:10.481Z,17.10
2022-08-20T21:21:39.010Z,17.08
2022-08-20T21:24:07.623Z,17.08
2022-08-20T21:26:35.059Z,17.05
2022-08-20T21:29:02.132Z,17.00
2022-08-20T21:31:34.243Z,17.02
2022-08-20T21:34:01.477Z,16.97
2022-08-20T21:36:29.066Z,17.03
2022-08-20T21:38:56.321Z,16.75
2022-08-20T21:41:30.005Z,16.73
2022-08-20T21:44:07.333Z,16.70
2022-08-20T21:46:43.269Z,16.64
2022-08-20T21:49:10.154Z,16.62
2022-08-20T21:51:36.985Z,16.64
2022-08-20T21:54:03.842Z,16.63
2022-08-20T21:56:33.794Z,16.67
2022-08-20T21:59:01.785Z,16.63
2022-08-20T22:01:28.643Z,16.60
2022-08-20T22:03:55.540Z,16.63
2022-08-20T22:06:22.454Z,16.56
2022-08-20T22:08:49.282Z,16.48
2022-08-20T22:11:17.054Z,16.45
2022-08-20T22:13:45.065Z,16.44
2022-08-20T22:16:16.302Z,16.33
2022-08-20T22:18:43.176Z,16.24
2022-08-20T22:21:15.516Z,16.10
2022-08-20T22:23:42.440Z,15.89
2022-08-20T22:26:09.996Z,15.85
2022-08-20T22:28:37.441Z,15.94
2022-08-20T22:31:05.647Z,15.94
2022-08-20T22:33:33.898Z,15.93
2022-08-20T22:36:02.405Z,15.80
2022-08-20T22:38:29.569Z,15.65
2022-08-20T22:40:56.474Z,15.55
2022-08-20T22:43:23.722Z,15.56
2022-08-20T22:45:56.018Z,15.50
2022-08-20T22:48:22.850Z,15.57
2022-08-20T22:50:51.122Z,15.66
2022-08-20T22:53:20.092Z,15.66
2022-08-20T22:55:48.329Z,15.65
2022-08-20T22:58:16.786Z,15.67
2022-08-20T23:00:46.265Z,15.61
2022-08-20T23:03:16.378Z,15.56
2022-08-20T23:05:48.803Z,15.36
2022-08-20T23:08:15.721Z,15.22
2022-08-20T23:10:42.915Z,15.15
2022-08-20T23:13:09.989Z,14.98
2022-08-20T23:15:41.454Z,14.74
2022-08-20T23:18:18.269Z,14.82
2022-08-20T23:20:52.550Z,14.91
2022-08-20T23:23:19.821Z,14.87
2022-08-20T23:25:47.032Z,14.98
2022-08-20T23:28:14.055Z,14.98
2022-08-20T23:30:40.822Z,14.86
2022-08-20T23:33:07.615Z,14.86
2022-08-20T23:35:36.098Z,14.91
2022-08-20T23:38:03.029Z,14.79
2022-08-20T23:40:32.075Z,14.81
2022-08-20T23:43:00.593Z,14.79
2022-08-20T23:45:28.885Z,14.71
2022-08-20T23:47:55.835Z,14.66
2022-08-20T23:50:28.900Z,14.69
2022-08-20T23:52:57.444Z,14.59
2022-08-20T23:55:24.566Z,14.63
2022-08-20T23:57:52.191Z,14.50
